<?xml version="1.0" encoding="utf-8"?>
<gpx xmlns:xsi="http://www.w3.org/2001/XMLSchema-instance" xmlns:xsd="http://www.w3.org/2001/XMLSchema" version="1.1" creator="Shapelink.com" xmlns="http://www.topografix.com/GPX/1/1" xmlns:gpxtpx="http://www.garmin.com/xmlschemas/TrackPointExtension/v1">
  <metadata>
    <name>Löpning 5.27 km, 2019-10-19</name>
    <desc></desc>
    <author><name>Bengt Norberg</name></author> 
    <time>2019-10-19T07:41:49Z</time>
  </metadata>
  <trk>
    <name>Löpning 5.27 km, 2019-10-19</name>
    <trkseg>
      <trkpt lat="59.819823304459" lon="16.985042262156">
        <ele>47.4</ele>
        <time>2019-10-19T07:41:49Z</time>
      </trkpt>
      <trkpt lat="59.819626665085" lon="16.985063300725">
        <ele>46.4</ele>
        <time>2019-10-19T07:41:58Z</time>
      </trkpt>
      <trkpt lat="59.819489034287" lon="16.985117615437">
        <ele>46.8</ele>
        <time>2019-10-19T07:42:04Z</time>
      </trkpt>
      <trkpt lat="59.81941837487" lon="16.985221048083">
        <ele>45.8</ele>
        <time>2019-10-19T07:42:15Z</time>
      </trkpt>
      <trkpt lat="59.81943932962" lon="16.985421291674">
        <ele>45.6</ele>
        <time>2019-10-19T07:42:19Z</time>
      </trkpt>
      <trkpt lat="59.819493728151" lon="16.985762686461">
        <ele>44.6</ele>
        <time>2019-10-19T07:42:26Z</time>
      </trkpt>
      <trkpt lat="59.819557346772" lon="16.986124281627">
        <ele>43.6</ele>
        <time>2019-10-19T07:42:34Z</time>
      </trkpt>
      <trkpt lat="59.819622474135" lon="16.986479590368">
        <ele>42</ele>
        <time>2019-10-19T07:42:42Z</time>
      </trkpt>
      <trkpt lat="59.819683326729" lon="16.986853590746">
        <ele>41</ele>
        <time>2019-10-19T07:42:50Z</time>
      </trkpt>
      <trkpt lat="59.819739736916" lon="16.987219376862">
        <ele>40</ele>
        <time>2019-10-19T07:42:58Z</time>
      </trkpt>
      <trkpt lat="59.819797823483" lon="16.987597316733">
        <ele>39.2</ele>
        <time>2019-10-19T07:43:06Z</time>
      </trkpt>
      <trkpt lat="59.819853479299" lon="16.987967880532">
        <ele>38</ele>
        <time>2019-10-19T07:43:14Z</time>
      </trkpt>
      <trkpt lat="59.819912152599" lon="16.988331152078">
        <ele>38</ele>
        <time>2019-10-19T07:43:22Z</time>
      </trkpt>
      <trkpt lat="59.81997912398" lon="16.988682353688">
        <ele>37.2</ele>
        <time>2019-10-19T07:43:30Z</time>
      </trkpt>
      <trkpt lat="59.820038467832" lon="16.989046044329">
        <ele>37.2</ele>
        <time>2019-10-19T07:43:38Z</time>
      </trkpt>
      <trkpt lat="59.820072246889" lon="16.989274702561">
        <ele>36.4</ele>
        <time>2019-10-19T07:43:43Z</time>
      </trkpt>
      <trkpt lat="59.820184815806" lon="16.989296663139">
        <ele>34.2</ele>
        <time>2019-10-19T07:43:49Z</time>
      </trkpt>
      <trkpt lat="59.820359997516" lon="16.98920186385">
        <ele>34</ele>
        <time>2019-10-19T07:43:57Z</time>
      </trkpt>
      <trkpt lat="59.820543393488" lon="16.989098347385">
        <ele>35.2</ele>
        <time>2019-10-19T07:44:05Z</time>
      </trkpt>
      <trkpt lat="59.82072008394" lon="16.989000782069">
        <ele>35.4</ele>
        <time>2019-10-19T07:44:13Z</time>
      </trkpt>
      <trkpt lat="59.820900630066" lon="16.988906318056">
        <ele>35.6</ele>
        <time>2019-10-19T07:44:21Z</time>
      </trkpt>
      <trkpt lat="59.821082768753" lon="16.98881629645">
        <ele>36</ele>
        <time>2019-10-19T07:44:29Z</time>
      </trkpt>
      <trkpt lat="59.82126742201" lon="16.988725604292">
        <ele>36.6</ele>
        <time>2019-10-19T07:44:37Z</time>
      </trkpt>
      <trkpt lat="59.821444531557" lon="16.988632481383">
        <ele>37</ele>
        <time>2019-10-19T07:44:45Z</time>
      </trkpt>
      <trkpt lat="59.821625496778" lon="16.988530641298">
        <ele>37.2</ele>
        <time>2019-10-19T07:44:53Z</time>
      </trkpt>
      <trkpt lat="59.821806126723" lon="16.988421173684">
        <ele>38.2</ele>
        <time>2019-10-19T07:45:01Z</time>
      </trkpt>
      <trkpt lat="59.821984661193" lon="16.9883008096">
        <ele>38.8</ele>
        <time>2019-10-19T07:45:09Z</time>
      </trkpt>
      <trkpt lat="59.822167470432" lon="16.988163178802">
        <ele>39.6</ele>
        <time>2019-10-19T07:45:17Z</time>
      </trkpt>
      <trkpt lat="59.822353129517" lon="16.988049939333">
        <ele>39.6</ele>
        <time>2019-10-19T07:45:25Z</time>
      </trkpt>
      <trkpt lat="59.822533005091" lon="16.987951452008">
        <ele>40.4</ele>
        <time>2019-10-19T07:45:33Z</time>
      </trkpt>
      <trkpt lat="59.822716736339" lon="16.987840810928">
        <ele>40.8</ele>
        <time>2019-10-19T07:45:41Z</time>
      </trkpt>
      <trkpt lat="59.822900635225" lon="16.987725895079">
        <ele>40.6</ele>
        <time>2019-10-19T07:45:49Z</time>
      </trkpt>
      <trkpt lat="59.823080175523" lon="16.987619109673">
        <ele>40.6</ele>
        <time>2019-10-19T07:45:57Z</time>
      </trkpt>
      <trkpt lat="59.823262649486" lon="16.987507211308">
        <ele>41.4</ele>
        <time>2019-10-19T07:46:05Z</time>
      </trkpt>
      <trkpt lat="59.823444369078" lon="16.987387517776">
        <ele>41</ele>
        <time>2019-10-19T07:46:13Z</time>
      </trkpt>
      <trkpt lat="59.823627429774" lon="16.987245276933">
        <ele>40.8</ele>
        <time>2019-10-19T07:46:21Z</time>
      </trkpt>
      <trkpt lat="59.823807221529" lon="16.987118207329">
        <ele>40</ele>
        <time>2019-10-19T07:46:29Z</time>
      </trkpt>
      <trkpt lat="59.824000675781" lon="16.987046374446">
        <ele>41</ele>
        <time>2019-10-19T07:46:37Z</time>
      </trkpt>
      <trkpt lat="59.824194549128" lon="16.986973787192">
        <ele>40</ele>
        <time>2019-10-19T07:46:45Z</time>
      </trkpt>
      <trkpt lat="59.824385656448" lon="16.986878484989">
        <ele>39</ele>
        <time>2019-10-19T07:46:53Z</time>
      </trkpt>
      <trkpt lat="59.824585648582" lon="16.986811429789">
        <ele>40.4</ele>
        <time>2019-10-19T07:47:01Z</time>
      </trkpt>
      <trkpt lat="59.824779270472" lon="16.98671579231">
        <ele>41</ele>
        <time>2019-10-19T07:47:09Z</time>
      </trkpt>
      <trkpt lat="59.824966438299" lon="16.986596936968">
        <ele>41.2</ele>
        <time>2019-10-19T07:47:17Z</time>
      </trkpt>
      <trkpt lat="59.825151762108" lon="16.986472549572">
        <ele>41.4</ele>
        <time>2019-10-19T07:47:25Z</time>
      </trkpt>
      <trkpt lat="59.825342785609" lon="16.986389652581">
        <ele>41</ele>
        <time>2019-10-19T07:47:33Z</time>
      </trkpt>
      <trkpt lat="59.825531210721" lon="16.986279682053">
        <ele>41</ele>
        <time>2019-10-19T07:47:41Z</time>
      </trkpt>
      <trkpt lat="59.825721479851" lon="16.986160323797">
        <ele>40.4</ele>
        <time>2019-10-19T07:47:49Z</time>
      </trkpt>
      <trkpt lat="59.825909988782" lon="16.986047922518">
        <ele>40.4</ele>
        <time>2019-10-19T07:47:57Z</time>
      </trkpt>
      <trkpt lat="59.82629320925" lon="16.985850528773">
        <ele>40.8</ele>
        <time>2019-10-19T07:48:13Z</time>
      </trkpt>
      <trkpt lat="59.826477443412" lon="16.985773834388">
        <ele>40</ele>
        <time>2019-10-19T07:48:22Z</time>
      </trkpt>
      <trkpt lat="59.826495464497" lon="16.985763105556">
        <ele>39.8</ele>
        <time>2019-10-19T07:48:24Z</time>
      </trkpt>
      <trkpt lat="59.826448358219" lon="16.98553729717">
        <ele>39</ele>
        <time>2019-10-19T07:48:31Z</time>
      </trkpt>
      <trkpt lat="59.826413657153" lon="16.985178300393">
        <ele>39.6</ele>
        <time>2019-10-19T07:48:39Z</time>
      </trkpt>
      <trkpt lat="59.826382811761" lon="16.984785021645">
        <ele>41.2</ele>
        <time>2019-10-19T07:48:47Z</time>
      </trkpt>
      <trkpt lat="59.826352553102" lon="16.984425605773">
        <ele>41.4</ele>
        <time>2019-10-19T07:48:54Z</time>
      </trkpt>
      <trkpt lat="59.826326066298" lon="16.984069542661">
        <ele>42</ele>
        <time>2019-10-19T07:49:01Z</time>
      </trkpt>
      <trkpt lat="59.82629153287" lon="16.98367148623">
        <ele>42.6</ele>
        <time>2019-10-19T07:49:09Z</time>
      </trkpt>
      <trkpt lat="59.826259514012" lon="16.983284326269">
        <ele>44.6</ele>
        <time>2019-10-19T07:49:17Z</time>
      </trkpt>
      <trkpt lat="59.826228333344" lon="16.982885850743">
        <ele>47.4</ele>
        <time>2019-10-19T07:49:25Z</time>
      </trkpt>
      <trkpt lat="59.826202600911" lon="16.982502546456">
        <ele>47.4</ele>
        <time>2019-10-19T07:49:33Z</time>
      </trkpt>
      <trkpt lat="59.826171504062" lon="16.982123768395">
        <ele>48.2</ele>
        <time>2019-10-19T07:49:41Z</time>
      </trkpt>
      <trkpt lat="59.826141580679" lon="16.981753875148">
        <ele>48.8</ele>
        <time>2019-10-19T07:49:49Z</time>
      </trkpt>
      <trkpt lat="59.826130935666" lon="16.981398398769">
        <ele>49.8</ele>
        <time>2019-10-19T07:49:56Z</time>
      </trkpt>
      <trkpt lat="59.826104951776" lon="16.981043341485">
        <ele>50.4</ele>
        <time>2019-10-19T07:50:03Z</time>
      </trkpt>
      <trkpt lat="59.826069328701" lon="16.980646877615">
        <ele>52.8</ele>
        <time>2019-10-19T07:50:11Z</time>
      </trkpt>
      <trkpt lat="59.826043931544" lon="16.980287377924">
        <ele>52.4</ele>
        <time>2019-10-19T07:50:19Z</time>
      </trkpt>
      <trkpt lat="59.825998501646" lon="16.979929219337">
        <ele>52.6</ele>
        <time>2019-10-19T07:50:27Z</time>
      </trkpt>
      <trkpt lat="59.825975702878" lon="16.979562762669">
        <ele>52</ele>
        <time>2019-10-19T07:50:35Z</time>
      </trkpt>
      <trkpt lat="59.825950724816" lon="16.979184319884">
        <ele>53.4</ele>
        <time>2019-10-19T07:50:43Z</time>
      </trkpt>
      <trkpt lat="59.825952736472" lon="16.97879238224">
        <ele>53.8</ele>
        <time>2019-10-19T07:50:52Z</time>
      </trkpt>
      <trkpt lat="59.82597134429" lon="16.978761704486">
        <ele>53.2</ele>
        <time>2019-10-19T07:50:53Z</time>
      </trkpt>
      <trkpt lat="59.826069831615" lon="16.978722225737">
        <ele>50.8</ele>
        <time>2019-10-19T07:50:57Z</time>
      </trkpt>
      <trkpt lat="59.826142418869" lon="16.978716274588">
        <ele>50</ele>
        <time>2019-10-19T07:51:00Z</time>
      </trkpt>
      <trkpt lat="59.826318941683" lon="16.978598927988">
        <ele>47.6</ele>
        <time>2019-10-19T07:51:08Z</time>
      </trkpt>
      <trkpt lat="59.826507115338" lon="16.978505888898">
        <ele>47.2</ele>
        <time>2019-10-19T07:51:16Z</time>
      </trkpt>
      <trkpt lat="59.826696965373" lon="16.978405557555">
        <ele>46</ele>
        <time>2019-10-19T07:51:24Z</time>
      </trkpt>
      <trkpt lat="59.826875918938" lon="16.978299023606">
        <ele>44.4</ele>
        <time>2019-10-19T07:51:32Z</time>
      </trkpt>
      <trkpt lat="59.827059650186" lon="16.978183940119">
        <ele>43</ele>
        <time>2019-10-19T07:51:40Z</time>
      </trkpt>
      <trkpt lat="59.827247237108" lon="16.978087799726">
        <ele>42.8</ele>
        <time>2019-10-19T07:51:48Z</time>
      </trkpt>
      <trkpt lat="59.827438679704" lon="16.977984702356">
        <ele>42.4</ele>
        <time>2019-10-19T07:51:56Z</time>
      </trkpt>
      <trkpt lat="59.827629367929" lon="16.97790976817">
        <ele>42.2</ele>
        <time>2019-10-19T07:52:04Z</time>
      </trkpt>
      <trkpt lat="59.827813266815" lon="16.977757469047">
        <ele>40.8</ele>
        <time>2019-10-19T07:52:12Z</time>
      </trkpt>
      <trkpt lat="59.827992807113" lon="16.977595363101">
        <ele>41.2</ele>
        <time>2019-10-19T07:52:20Z</time>
      </trkpt>
      <trkpt lat="59.8281498001" lon="16.977387491981">
        <ele>40.2</ele>
        <time>2019-10-19T07:52:28Z</time>
      </trkpt>
      <trkpt lat="59.828316683729" lon="16.977177525386">
        <ele>38</ele>
        <time>2019-10-19T07:52:36Z</time>
      </trkpt>
      <trkpt lat="59.828483734996" lon="16.976994716147">
        <ele>38</ele>
        <time>2019-10-19T07:52:44Z</time>
      </trkpt>
      <trkpt lat="59.828664197303" lon="16.97681006289">
        <ele>39</ele>
        <time>2019-10-19T07:52:52Z</time>
      </trkpt>
      <trkpt lat="59.828841474488" lon="16.976642341071">
        <ele>38.4</ele>
        <time>2019-10-19T07:53:00Z</time>
      </trkpt>
      <trkpt lat="59.829006178823" lon="16.976455676158">
        <ele>38</ele>
        <time>2019-10-19T07:53:08Z</time>
      </trkpt>
      <trkpt lat="59.829172894814" lon="16.976417454694">
        <ele>38.6</ele>
        <time>2019-10-19T07:53:16Z</time>
      </trkpt>
      <trkpt lat="59.829243889507" lon="16.976754071798">
        <ele>40.2</ele>
        <time>2019-10-19T07:53:23Z</time>
      </trkpt>
      <trkpt lat="59.829310777069" lon="16.977118265353">
        <ele>39</ele>
        <time>2019-10-19T07:53:31Z</time>
      </trkpt>
      <trkpt lat="59.82931739877" lon="16.977253381581">
        <ele>40.2</ele>
        <time>2019-10-19T07:53:34Z</time>
      </trkpt>
      <trkpt lat="59.829169709692" lon="16.977481620718">
        <ele>40.6</ele>
        <time>2019-10-19T07:53:42Z</time>
      </trkpt>
      <trkpt lat="59.828996204362" lon="16.977655293686">
        <ele>42.2</ele>
        <time>2019-10-19T07:53:50Z</time>
      </trkpt>
      <trkpt lat="59.828828482543" lon="16.977857213657">
        <ele>42.2</ele>
        <time>2019-10-19T07:53:58Z</time>
      </trkpt>
      <trkpt lat="59.828669645538" lon="16.978081680939">
        <ele>42.4</ele>
        <time>2019-10-19T07:54:06Z</time>
      </trkpt>
      <trkpt lat="59.828514999483" lon="16.978272536802">
        <ele>44.4</ele>
        <time>2019-10-19T07:54:14Z</time>
      </trkpt>
      <trkpt lat="59.828288352907" lon="16.97844788615">
        <ele>44.2</ele>
        <time>2019-10-19T07:54:24Z</time>
      </trkpt>
      <trkpt lat="59.828210065961" lon="16.978329785179">
        <ele>43.4</ele>
        <time>2019-10-19T07:54:28Z</time>
      </trkpt>
      <trkpt lat="59.828132365748" lon="16.977970536945">
        <ele>46.4</ele>
        <time>2019-10-19T07:54:35Z</time>
      </trkpt>
      <trkpt lat="59.828062209245" lon="16.977709021665">
        <ele>47.2</ele>
        <time>2019-10-19T07:54:41Z</time>
      </trkpt>
      <trkpt lat="59.827956764943" lon="16.977706674733">
        <ele>47.2</ele>
        <time>2019-10-19T07:54:47Z</time>
      </trkpt>
      <trkpt lat="59.827787115287" lon="16.977887639954">
        <ele>46</ele>
        <time>2019-10-19T07:54:55Z</time>
      </trkpt>
      <trkpt lat="59.827602294392" lon="16.978051170823">
        <ele>46.2</ele>
        <time>2019-10-19T07:55:03Z</time>
      </trkpt>
      <trkpt lat="59.827415797117" lon="16.97816793069">
        <ele>46.2</ele>
        <time>2019-10-19T07:55:11Z</time>
      </trkpt>
      <trkpt lat="59.827238268475" lon="16.978279493779">
        <ele>46.2</ele>
        <time>2019-10-19T07:55:18Z</time>
      </trkpt>
      <trkpt lat="59.827066439525" lon="16.978385273357">
        <ele>45.8</ele>
        <time>2019-10-19T07:55:25Z</time>
      </trkpt>
      <trkpt lat="59.826873739644" lon="16.978491555849">
        <ele>47</ele>
        <time>2019-10-19T07:55:33Z</time>
      </trkpt>
      <trkpt lat="59.82668967312" lon="16.978614099227">
        <ele>49.2</ele>
        <time>2019-10-19T07:55:41Z</time>
      </trkpt>
      <trkpt lat="59.82649688942" lon="16.978671850518">
        <ele>50.4</ele>
        <time>2019-10-19T07:55:50Z</time>
      </trkpt>
      <trkpt lat="59.826311314154" lon="16.978754998966">
        <ele>49.8</ele>
        <time>2019-10-19T07:55:58Z</time>
      </trkpt>
      <trkpt lat="59.826122050852" lon="16.978869663358">
        <ele>50.2</ele>
        <time>2019-10-19T07:56:06Z</time>
      </trkpt>
      <trkpt lat="59.825971511928" lon="16.978955577833">
        <ele>50.2</ele>
        <time>2019-10-19T07:56:13Z</time>
      </trkpt>
      <trkpt lat="59.825972853032" lon="16.979123886385">
        <ele>49</ele>
        <time>2019-10-19T07:56:17Z</time>
      </trkpt>
      <trkpt lat="59.826000261845" lon="16.979479446583">
        <ele>46.2</ele>
        <time>2019-10-19T07:56:24Z</time>
      </trkpt>
      <trkpt lat="59.826035465825" lon="16.979832156935">
        <ele>45.4</ele>
        <time>2019-10-19T07:56:31Z</time>
      </trkpt>
      <trkpt lat="59.826067317045" lon="16.980183190907">
        <ele>43.8</ele>
        <time>2019-10-19T07:56:38Z</time>
      </trkpt>
      <trkpt lat="59.826090115813" lon="16.980550318127">
        <ele>42.2</ele>
        <time>2019-10-19T07:56:45Z</time>
      </trkpt>
      <trkpt lat="59.82611383659" lon="16.980909231085">
        <ele>40</ele>
        <time>2019-10-19T07:56:52Z</time>
      </trkpt>
      <trkpt lat="59.826130516571" lon="16.981267138215">
        <ele>37.6</ele>
        <time>2019-10-19T07:56:59Z</time>
      </trkpt>
      <trkpt lat="59.826160272316" lon="16.981670810519">
        <ele>36.4</ele>
        <time>2019-10-19T07:57:07Z</time>
      </trkpt>
      <trkpt lat="59.826189189871" lon="16.982068615493">
        <ele>37.2</ele>
        <time>2019-10-19T07:57:15Z</time>
      </trkpt>
      <trkpt lat="59.826217436874" lon="16.982423086044">
        <ele>38.8</ele>
        <time>2019-10-19T07:57:22Z</time>
      </trkpt>
      <trkpt lat="59.826246857343" lon="16.982796751146">
        <ele>39</ele>
        <time>2019-10-19T07:57:29Z</time>
      </trkpt>
      <trkpt lat="59.826269320835" lon="16.983168404592">
        <ele>39</ele>
        <time>2019-10-19T07:57:36Z</time>
      </trkpt>
      <trkpt lat="59.826288766843" lon="16.98353067031">
        <ele>37.6</ele>
        <time>2019-10-19T07:57:43Z</time>
      </trkpt>
      <trkpt lat="59.826320282787" lon="16.983900982652">
        <ele>37.6</ele>
        <time>2019-10-19T07:57:50Z</time>
      </trkpt>
      <trkpt lat="59.826335621664" lon="16.984271378813">
        <ele>35</ele>
        <time>2019-10-19T07:57:57Z</time>
      </trkpt>
      <trkpt lat="59.826357917518" lon="16.984633812169">
        <ele>33.6</ele>
        <time>2019-10-19T07:58:04Z</time>
      </trkpt>
      <trkpt lat="59.82637954282" lon="16.985007644909">
        <ele>32.4</ele>
        <time>2019-10-19T07:58:11Z</time>
      </trkpt>
      <trkpt lat="59.826406867814" lon="16.985369072437">
        <ele>33</ele>
        <time>2019-10-19T07:58:18Z</time>
      </trkpt>
      <trkpt lat="59.826445005459" lon="16.985760088072">
        <ele>34</ele>
        <time>2019-10-19T07:58:26Z</time>
      </trkpt>
      <trkpt lat="59.826466211666" lon="16.985828232919">
        <ele>34.8</ele>
        <time>2019-10-19T07:58:28Z</time>
      </trkpt>
      <trkpt lat="59.826660587927" lon="16.985877853767">
        <ele>36.2</ele>
        <time>2019-10-19T07:58:35Z</time>
      </trkpt>
      <trkpt lat="59.826840379682" lon="16.985911297548">
        <ele>38.4</ele>
        <time>2019-10-19T07:58:41Z</time>
      </trkpt>
      <trkpt lat="59.82704003654" lon="16.985963600604">
        <ele>40</ele>
        <time>2019-10-19T07:58:48Z</time>
      </trkpt>
      <trkpt lat="59.827235418629" lon="16.985991428512">
        <ele>39</ele>
        <time>2019-10-19T07:58:55Z</time>
      </trkpt>
      <trkpt lat="59.827416300031" lon="16.985940969474">
        <ele>38</ele>
        <time>2019-10-19T07:59:02Z</time>
      </trkpt>
      <trkpt lat="59.827603635496" lon="16.985772577103">
        <ele>37.4</ele>
        <time>2019-10-19T07:59:10Z</time>
      </trkpt>
      <trkpt lat="59.827763478329" lon="16.985599407049">
        <ele>37.4</ele>
        <time>2019-10-19T07:59:17Z</time>
      </trkpt>
      <trkpt lat="59.82792181242" lon="16.985400085467">
        <ele>37.6</ele>
        <time>2019-10-19T07:59:24Z</time>
      </trkpt>
      <trkpt lat="59.828074446819" lon="16.985206966491">
        <ele>37.8</ele>
        <time>2019-10-19T07:59:31Z</time>
      </trkpt>
      <trkpt lat="59.828226829761" lon="16.985010494755">
        <ele>37.2</ele>
        <time>2019-10-19T07:59:38Z</time>
      </trkpt>
      <trkpt lat="59.828393042838" lon="16.984858866184">
        <ele>36</ele>
        <time>2019-10-19T07:59:45Z</time>
      </trkpt>
      <trkpt lat="59.828557663354" lon="16.984702627568">
        <ele>35.2</ele>
        <time>2019-10-19T07:59:52Z</time>
      </trkpt>
      <trkpt lat="59.828734102349" lon="16.984497606294">
        <ele>35.4</ele>
        <time>2019-10-19T08:00:00Z</time>
      </trkpt>
      <trkpt lat="59.828894364277" lon="16.984253776823">
        <ele>35.2</ele>
        <time>2019-10-19T08:00:08Z</time>
      </trkpt>
      <trkpt lat="59.829043645916" lon="16.983964182178">
        <ele>35.6</ele>
        <time>2019-10-19T08:00:16Z</time>
      </trkpt>
      <trkpt lat="59.829164345276" lon="16.983694452636">
        <ele>36.4</ele>
        <time>2019-10-19T08:00:23Z</time>
      </trkpt>
      <trkpt lat="59.829285966645" lon="16.983422292343">
        <ele>36.8</ele>
        <time>2019-10-19T08:00:30Z</time>
      </trkpt>
      <trkpt lat="59.829413706801" lon="16.983132194784">
        <ele>37.6</ele>
        <time>2019-10-19T08:00:38Z</time>
      </trkpt>
      <trkpt lat="59.829551589056" lon="16.9828441927">
        <ele>38.6</ele>
        <time>2019-10-19T08:00:46Z</time>
      </trkpt>
      <trkpt lat="59.829685699456" lon="16.982590807863">
        <ele>38.6</ele>
        <time>2019-10-19T08:00:53Z</time>
      </trkpt>
      <trkpt lat="59.829839758778" lon="16.982388636435">
        <ele>38</ele>
        <time>2019-10-19T08:01:00Z</time>
      </trkpt>
      <trkpt lat="59.830011336271" lon="16.982170120302">
        <ele>37</ele>
        <time>2019-10-19T08:01:08Z</time>
      </trkpt>
      <trkpt lat="59.830168329258" lon="16.981987981615">
        <ele>37.4</ele>
        <time>2019-10-19T08:01:15Z</time>
      </trkpt>
      <trkpt lat="59.830326328073" lon="16.981809530964">
        <ele>37.8</ele>
        <time>2019-10-19T08:01:22Z</time>
      </trkpt>
      <trkpt lat="59.830501845059" lon="16.981604844966">
        <ele>37.4</ele>
        <time>2019-10-19T08:01:30Z</time>
      </trkpt>
      <trkpt lat="59.830679541339" lon="16.981400578063">
        <ele>37.6</ele>
        <time>2019-10-19T08:01:38Z</time>
      </trkpt>
      <trkpt lat="59.830842569294" lon="16.981225899267">
        <ele>38.8</ele>
        <time>2019-10-19T08:01:45Z</time>
      </trkpt>
      <trkpt lat="59.831019846479" lon="16.981036887422">
        <ele>38.8</ele>
        <time>2019-10-19T08:01:53Z</time>
      </trkpt>
      <trkpt lat="59.831195028189" lon="16.980822394601">
        <ele>39</ele>
        <time>2019-10-19T08:02:01Z</time>
      </trkpt>
      <trkpt lat="59.831342381991" lon="16.980613685291">
        <ele>39.8</ele>
        <time>2019-10-19T08:02:08Z</time>
      </trkpt>
      <trkpt lat="59.831510439086" lon="16.980483095289">
        <ele>40.8</ele>
        <time>2019-10-19T08:02:15Z</time>
      </trkpt>
      <trkpt lat="59.831695427619" lon="16.980318642411">
        <ele>41</ele>
        <time>2019-10-19T08:02:23Z</time>
      </trkpt>
      <trkpt lat="59.831858371755" lon="16.980164918365">
        <ele>41.2</ele>
        <time>2019-10-19T08:02:30Z</time>
      </trkpt>
      <trkpt lat="59.832048305609" lon="16.980032987259">
        <ele>42.4</ele>
        <time>2019-10-19T08:02:38Z</time>
      </trkpt>
      <trkpt lat="59.832237233635" lon="16.979915305383">
        <ele>43.8</ele>
        <time>2019-10-19T08:02:46Z</time>
      </trkpt>
      <trkpt lat="59.832418450313" lon="16.979828133623">
        <ele>43.6</ele>
        <time>2019-10-19T08:02:54Z</time>
      </trkpt>
      <trkpt lat="59.832595056946" lon="16.97975294798">
        <ele>45.4</ele>
        <time>2019-10-19T08:03:02Z</time>
      </trkpt>
      <trkpt lat="59.832615592601" lon="16.97974037513">
        <ele>45.6</ele>
        <time>2019-10-19T08:03:04Z</time>
      </trkpt>
      <trkpt lat="59.832446948773" lon="16.979870126942">
        <ele>45.4</ele>
        <time>2019-10-19T08:03:12Z</time>
      </trkpt>
      <trkpt lat="59.832259864765" lon="16.979953107752">
        <ele>44.4</ele>
        <time>2019-10-19T08:03:19Z</time>
      </trkpt>
      <trkpt lat="59.832082084666" lon="16.980056708036">
        <ele>42.8</ele>
        <time>2019-10-19T08:03:26Z</time>
      </trkpt>
      <trkpt lat="59.831890055337" lon="16.980199870888">
        <ele>44.2</ele>
        <time>2019-10-19T08:03:34Z</time>
      </trkpt>
      <trkpt lat="59.831717220559" lon="16.980375052598">
        <ele>45.2</ele>
        <time>2019-10-19T08:03:41Z</time>
      </trkpt>
      <trkpt lat="59.831535165691" lon="16.980550737222">
        <ele>44.2</ele>
        <time>2019-10-19T08:03:49Z</time>
      </trkpt>
      <trkpt lat="59.831373814116" lon="16.980731870081">
        <ele>45.6</ele>
        <time>2019-10-19T08:03:56Z</time>
      </trkpt>
      <trkpt lat="59.831218916604" lon="16.980940830848">
        <ele>46.2</ele>
        <time>2019-10-19T08:04:03Z</time>
      </trkpt>
      <trkpt lat="59.831042812885" lon="16.981156413316">
        <ele>48</ele>
        <time>2019-10-19T08:04:11Z</time>
      </trkpt>
      <trkpt lat="59.830886155174" lon="16.981344335514">
        <ele>47.4</ele>
        <time>2019-10-19T08:04:18Z</time>
      </trkpt>
      <trkpt lat="59.830718768631" lon="16.981539549965">
        <ele>47.2</ele>
        <time>2019-10-19T08:04:25Z</time>
      </trkpt>
      <trkpt lat="59.830561524187" lon="16.981720347548">
        <ele>47.8</ele>
        <time>2019-10-19T08:04:32Z</time>
      </trkpt>
      <trkpt lat="59.830401094621" lon="16.981935259464">
        <ele>47.6</ele>
        <time>2019-10-19T08:04:39Z</time>
      </trkpt>
      <trkpt lat="59.83024024596" lon="16.982106417862">
        <ele>47.8</ele>
        <time>2019-10-19T08:04:46Z</time>
      </trkpt>
      <trkpt lat="59.83006506425" lon="16.98229601644">
        <ele>48</ele>
        <time>2019-10-19T08:04:54Z</time>
      </trkpt>
      <trkpt lat="59.829889547264" lon="16.982502043542">
        <ele>48</ele>
        <time>2019-10-19T08:05:02Z</time>
      </trkpt>
      <trkpt lat="59.829720987255" lon="16.982695497794">
        <ele>45.4</ele>
        <time>2019-10-19T08:05:09Z</time>
      </trkpt>
      <trkpt lat="59.82956550301" lon="16.982954414685">
        <ele>43.4</ele>
        <time>2019-10-19T08:05:17Z</time>
      </trkpt>
      <trkpt lat="59.829430135325" lon="16.983236968534">
        <ele>43.6</ele>
        <time>2019-10-19T08:05:25Z</time>
      </trkpt>
      <trkpt lat="59.82931823696" lon="16.983528323378">
        <ele>45.8</ele>
        <time>2019-10-19T08:05:33Z</time>
      </trkpt>
      <trkpt lat="59.829195274487" lon="16.983811883055">
        <ele>45.6</ele>
        <time>2019-10-19T08:05:41Z</time>
      </trkpt>
      <trkpt lat="59.82907516186" lon="16.984095023637">
        <ele>44.8</ele>
        <time>2019-10-19T08:05:48Z</time>
      </trkpt>
      <trkpt lat="59.82894188965" lon="16.984378834771">
        <ele>43.4</ele>
        <time>2019-10-19T08:05:55Z</time>
      </trkpt>
      <trkpt lat="59.828674674678" lon="16.984752080778">
        <ele>42.2</ele>
        <time>2019-10-19T08:06:07Z</time>
      </trkpt>
      <trkpt lat="59.828503600099" lon="16.984912342706">
        <ele>42</ele>
        <time>2019-10-19T08:06:14Z</time>
      </trkpt>
      <trkpt lat="59.828332190244" lon="16.985062630173">
        <ele>42</ele>
        <time>2019-10-19T08:06:21Z</time>
      </trkpt>
      <trkpt lat="59.828169581384" lon="16.98523722515">
        <ele>41.6</ele>
        <time>2019-10-19T08:06:28Z</time>
      </trkpt>
      <trkpt lat="59.828009403275" lon="16.985424392977">
        <ele>41.8</ele>
        <time>2019-10-19T08:06:35Z</time>
      </trkpt>
      <trkpt lat="59.827852410288" lon="16.985639388712">
        <ele>42</ele>
        <time>2019-10-19T08:06:42Z</time>
      </trkpt>
      <trkpt lat="59.827694160016" lon="16.985821192123">
        <ele>43.2</ele>
        <time>2019-10-19T08:06:49Z</time>
      </trkpt>
      <trkpt lat="59.827530042414" lon="16.985990338865">
        <ele>44</ele>
        <time>2019-10-19T08:06:56Z</time>
      </trkpt>
      <trkpt lat="59.827342539311" lon="16.986097040452">
        <ele>44.6</ele>
        <time>2019-10-19T08:07:03Z</time>
      </trkpt>
      <trkpt lat="59.827155539122" lon="16.986063596671">
        <ele>42.8</ele>
        <time>2019-10-19T08:07:10Z</time>
      </trkpt>
      <trkpt lat="59.826956301359" lon="16.985997714937">
        <ele>41.8</ele>
        <time>2019-10-19T08:07:18Z</time>
      </trkpt>
      <trkpt lat="59.826761673641" lon="16.985908028607">
        <ele>41.6</ele>
        <time>2019-10-19T08:07:26Z</time>
      </trkpt>
      <trkpt lat="59.826564363715" lon="16.985840638131">
        <ele>42.2</ele>
        <time>2019-10-19T08:07:34Z</time>
      </trkpt>
      <trkpt lat="59.826367305246" lon="16.985853462438">
        <ele>44</ele>
        <time>2019-10-19T08:07:42Z</time>
      </trkpt>
      <trkpt lat="59.826184328369" lon="16.985975167626">
        <ele>45.4</ele>
        <time>2019-10-19T08:07:49Z</time>
      </trkpt>
      <trkpt lat="59.826003363148" lon="16.986112966062">
        <ele>45.2</ele>
        <time>2019-10-19T08:07:56Z</time>
      </trkpt>
      <trkpt lat="59.825825834506" lon="16.986235174164">
        <ele>43.6</ele>
        <time>2019-10-19T08:08:03Z</time>
      </trkpt>
      <trkpt lat="59.825635984471" lon="16.986349335642">
        <ele>45.2</ele>
        <time>2019-10-19T08:08:11Z</time>
      </trkpt>
      <trkpt lat="59.825446888807" lon="16.986476489065">
        <ele>46.8</ele>
        <time>2019-10-19T08:08:19Z</time>
      </trkpt>
      <trkpt lat="59.825276736237" lon="16.986610264189">
        <ele>48.2</ele>
        <time>2019-10-19T08:08:26Z</time>
      </trkpt>
      <trkpt lat="59.825095687197" lon="16.986689976058">
        <ele>45.6</ele>
        <time>2019-10-19T08:08:33Z</time>
      </trkpt>
      <trkpt lat="59.824922936238" lon="16.986789720668">
        <ele>45</ele>
        <time>2019-10-19T08:08:40Z</time>
      </trkpt>
      <trkpt lat="59.824741803379" lon="16.986897847178">
        <ele>45</ele>
        <time>2019-10-19T08:08:47Z</time>
      </trkpt>
      <trkpt lat="59.824564526194" lon="16.986975715029">
        <ele>44</ele>
        <time>2019-10-19T08:08:54Z</time>
      </trkpt>
      <trkpt lat="59.824384315344" lon="16.987059701667">
        <ele>42</ele>
        <time>2019-10-19T08:09:01Z</time>
      </trkpt>
      <trkpt lat="59.824191783101" lon="16.987151232015">
        <ele>40.4</ele>
        <time>2019-10-19T08:09:08Z</time>
      </trkpt>
      <trkpt lat="59.824010482604" lon="16.987224741278">
        <ele>40.8</ele>
        <time>2019-10-19T08:09:15Z</time>
      </trkpt>
      <trkpt lat="59.823821470759" lon="16.987300262197">
        <ele>40</ele>
        <time>2019-10-19T08:09:22Z</time>
      </trkpt>
      <trkpt lat="59.823646624325" lon="16.987415010408">
        <ele>41</ele>
        <time>2019-10-19T08:09:29Z</time>
      </trkpt>
      <trkpt lat="59.823469430959" lon="16.987527830782">
        <ele>41.4</ele>
        <time>2019-10-19T08:09:36Z</time>
      </trkpt>
      <trkpt lat="59.823282011675" lon="16.987640651156">
        <ele>45</ele>
        <time>2019-10-19T08:09:44Z</time>
      </trkpt>
      <trkpt lat="59.823105237404" lon="16.987746011639">
        <ele>45.6</ele>
        <time>2019-10-19T08:09:51Z</time>
      </trkpt>
      <trkpt lat="59.822923182536" lon="16.987859837841">
        <ele>45.6</ele>
        <time>2019-10-19T08:09:58Z</time>
      </trkpt>
      <trkpt lat="59.822740624754" lon="16.987970395102">
        <ele>44.4</ele>
        <time>2019-10-19T08:10:05Z</time>
      </trkpt>
      <trkpt lat="59.82255739642" lon="16.988069720617">
        <ele>43.8</ele>
        <time>2019-10-19T08:10:12Z</time>
      </trkpt>
      <trkpt lat="59.822371066783" lon="16.988193605099">
        <ele>44.2</ele>
        <time>2019-10-19T08:10:20Z</time>
      </trkpt>
      <trkpt lat="59.822180881472" lon="16.988315729382">
        <ele>44.4</ele>
        <time>2019-10-19T08:10:28Z</time>
      </trkpt>
      <trkpt lat="59.821992959274" lon="16.988438524217">
        <ele>45</ele>
        <time>2019-10-19T08:10:36Z</time>
      </trkpt>
      <trkpt lat="59.821823728713" lon="16.988565174726">
        <ele>46.4</ele>
        <time>2019-10-19T08:10:43Z</time>
      </trkpt>
      <trkpt lat="59.821641757664" lon="16.988678917109">
        <ele>46</ele>
        <time>2019-10-19T08:10:50Z</time>
      </trkpt>
      <trkpt lat="59.821446291756" lon="16.988787378895">
        <ele>46.4</ele>
        <time>2019-10-19T08:10:58Z</time>
      </trkpt>
      <trkpt lat="59.821262141413" lon="16.988881423813">
        <ele>47</ele>
        <time>2019-10-19T08:11:05Z</time>
      </trkpt>
      <trkpt lat="59.821079080717" lon="16.988993322178">
        <ele>45.8</ele>
        <time>2019-10-19T08:11:12Z</time>
      </trkpt>
      <trkpt lat="59.820897025849" lon="16.989049564727">
        <ele>42.8</ele>
        <time>2019-10-19T08:11:19Z</time>
      </trkpt>
      <trkpt lat="59.820712959325" lon="16.989146291853">
        <ele>41.8</ele>
        <time>2019-10-19T08:11:26Z</time>
      </trkpt>
      <trkpt lat="59.82052813843" lon="16.989215358709">
        <ele>40.4</ele>
        <time>2019-10-19T08:11:33Z</time>
      </trkpt>
      <trkpt lat="59.820347676123" lon="16.989314851862">
        <ele>38.8</ele>
        <time>2019-10-19T08:11:40Z</time>
      </trkpt>
      <trkpt lat="59.820146259066" lon="16.989395569559">
        <ele>38.8</ele>
        <time>2019-10-19T08:11:48Z</time>
      </trkpt>
      <trkpt lat="59.820040060393" lon="16.989383499623">
        <ele>39.2</ele>
        <time>2019-10-19T08:11:52Z</time>
      </trkpt>
      <trkpt lat="59.819991864468" lon="16.989086109811">
        <ele>41.4</ele>
        <time>2019-10-19T08:11:57Z</time>
      </trkpt>
      <trkpt lat="59.819920031585" lon="16.98873583021">
        <ele>43.4</ele>
        <time>2019-10-19T08:12:03Z</time>
      </trkpt>
      <trkpt lat="59.819857334973" lon="16.988374486501">
        <ele>44</ele>
        <time>2019-10-19T08:12:10Z</time>
      </trkpt>
      <trkpt lat="59.819796566198" lon="16.988019345398">
        <ele>44</ele>
        <time>2019-10-19T08:12:17Z</time>
      </trkpt>
      <trkpt lat="59.819743173495" lon="16.987625731374">
        <ele>42.2</ele>
        <time>2019-10-19T08:12:25Z</time>
      </trkpt>
      <trkpt lat="59.819687685317" lon="16.987272937203">
        <ele>43.2</ele>
        <time>2019-10-19T08:12:32Z</time>
      </trkpt>
      <trkpt lat="59.819629012017" lon="16.986883681767">
        <ele>42.4</ele>
        <time>2019-10-19T08:12:40Z</time>
      </trkpt>
      <trkpt lat="59.819572518011" lon="16.986538766582">
        <ele>42.8</ele>
        <time>2019-10-19T08:12:47Z</time>
      </trkpt>
      <trkpt lat="59.819504876078" lon="16.986193180845">
        <ele>44.8</ele>
        <time>2019-10-19T08:12:54Z</time>
      </trkpt>
      <trkpt lat="59.819444945493" lon="16.985821359761">
        <ele>45</ele>
        <time>2019-10-19T08:13:02Z</time>
      </trkpt>
      <trkpt lat="59.819391385152" lon="16.985455825102">
        <ele>43</ele>
        <time>2019-10-19T08:13:09Z</time>
      </trkpt>
      <trkpt lat="59.819368754022" lon="16.985353817379">
        <ele>42.4</ele>
        <time>2019-10-19T08:13:11Z</time>
      </trkpt>
    </trkseg>
  </trk>
</gpx>